Decoded Metar for LFRK (CAEN in FRANCE) (IATA:CFR) | Meteo·Mobile Aviation Weather
aviador You're here:

LFRK Decoded Metar

CAEN in FRANCE
Report Time2019-10-19 23:00:00
UTC Time2019-10-19 23:18:46
Flight Rules vfr VFR
WindVRB at 02 kt
Visibility9999 m
Phenomena:N/A
Clouds:N/A
Expected CloudBase > 400 ft AGL from Temp-Dew spread
CeilingNone
Temp10°C (ISA -5)
Dew Point09°C (94% RH)
AAT9.1°C
QNH1006 hPa
Density Alt69 ft
Elevation220 ft
Report Wrong Elevation
Raw Report
LFRK 192300Z AUTO VRB02KT CAVOK 10/09 Q1006=

Extra information for LFRK:More info

Metar Taf Metar & Taf Last 4 Metars F.Rules Stats Wind Profile Meteogram Temp Stats Airport Information Weather charts Add Link Nearby VenuesMetar ALERT Operation Metar Decoded Social comments